sensor_id;sensor_type;location;lat;lon;timestamp;P1;durP1;ratioP1;P2;durP2;ratioP2
18499;SDS011;9379;52.134;11.576;2022-07-23T00:01:30;5.38;;;4.88;;
18499;SDS011;9379;52.134;11.576;2022-07-23T00:04:00;5.78;;;5.25;;
18499;SDS011;9379;52.134;11.576;2022-07-23T00:06:29;5.10;;;4.70;;
18499;SDS011;9379;52.134;11.576;2022-07-23T00:08:58;9.32;;;4.93;;
18499;SDS011;9379;52.134;11.576;2022-07-23T00:11:28;4.43;;;4.05;;
18499;SDS011;9379;52.134;11.576;2022-07-23T00:13:55;4.68;;;4.38;;
18499;SDS011;9379;52.134;11.576;2022-07-23T00:16:23;5.40;;;4.90;;
18499;SDS011;9379;52.134;11.576;2022-07-23T00:18:50;5.40;;;4.70;;
18499;SDS011;9379;52.134;11.576;2022-07-23T00:21:22;8.57;;;5.97;;
18499;SDS011;9379;52.134;11.576;2022-07-23T00:23:53;5.43;;;5.03;;
18499;SDS011;9379;52.134;11.576;2022-07-23T00:26:20;6.18;;;4.65;;
18499;SDS011;9379;52.134;11.576;2022-07-23T00:28:51;5.38;;;4.35;;
18499;SDS011;9379;52.134;11.576;2022-07-23T00:31:24;3.80;;;3.55;;
18499;SDS011;9379;52.134;11.576;2022-07-23T00:33:52;5.00;;;4.55;;
18499;SDS011;9379;52.134;11.576;2022-07-23T00:36:25;4.95;;;4.55;;
18499;SDS011;9379;52.134;11.576;2022-07-23T00:38:53;4.70;;;4.30;;
18499;SDS011;9379;52.134;11.576;2022-07-23T00:41:21;5.70;;;5.20;;
18499;SDS011;9379;52.134;11.576;2022-07-23T00:43:49;5.82;;;5.30;;
18499;SDS011;9379;52.134;11.576;2022-07-23T00:46:21;5.45;;;4.97;;
18499;SDS011;9379;52.134;11.576;2022-07-23T00:48:50;4.88;;;4.53;;
18499;SDS011;9379;52.134;11.576;2022-07-23T00:51:17;5.53;;;5.03;;
18499;SDS011;9379;52.134;11.576;2022-07-23T00:53:46;4.20;;;3.90;;
18499;SDS011;9379;52.134;11.576;2022-07-23T00:56:14;4.50;;;4.10;;
18499;SDS011;9379;52.134;11.576;2022-07-23T00:58:41;6.60;;;4.65;;
18499;SDS011;9379;52.134;11.576;2022-07-23T01:01:12;4.63;;;4.05;;
18499;SDS011;9379;52.134;11.576;2022-07-23T01:03:40;3.20;;;2.90;;
18499;SDS011;9379;52.134;11.576;2022-07-23T01:06:07;4.18;;;3.80;;
18499;SDS011;9379;52.134;11.576;2022-07-23T01:08:36;3.45;;;3.08;;
18499;SDS011;9379;52.134;11.576;2022-07-23T01:11:06;3.50;;;3.25;;
18499;SDS011;9379;52.134;11.576;2022-07-23T01:13:34;5.88;;;5.30;;
18499;SDS011;9379;52.134;11.576;2022-07-23T01:16:01;4.95;;;4.55;;
18499;SDS011;9379;52.134;11.576;2022-07-23T01:18:29;12.75;;;6.10;;
18499;SDS011;9379;52.134;11.576;2022-07-23T01:20:56;4.57;;;4.18;;
18499;SDS011;9379;52.134;11.576;2022-07-23T01:23:25;5.85;;;5.35;;
18499;SDS011;9379;52.134;11.576;2022-07-23T01:25:57;6.05;;;5.63;;
18499;SDS011;9379;52.134;11.576;2022-07-23T01:28:24;5.35;;;4.85;;
18499;SDS011;9379;52.134;11.576;2022-07-23T01:30:53;5.65;;;5.15;;
18499;SDS011;9379;52.134;11.576;2022-07-23T01:33:22;5.13;;;4.43;;
18499;SDS011;9379;52.134;11.576;2022-07-23T01:35:55;5.00;;;4.60;;
18499;SDS011;9379;52.134;11.576;2022-07-23T01:38:32;5.70;;;4.75;;
18499;SDS011;9379;52.134;11.576;2022-07-23T01:41:01;4.65;;;4.15;;
18499;SDS011;9379;52.134;11.576;2022-07-23T01:43:29;9.88;;;4.97;;
18499;SDS011;9379;52.134;11.576;2022-07-23T01:46:01;4.60;;;4.20;;
18499;SDS011;9379;52.134;11.576;2022-07-23T01:48:29;4.97;;;3.75;;
18499;SDS011;9379;52.134;11.576;2022-07-23T01:50:57;6.20;;;3.90;;
18499;SDS011;9379;52.134;11.576;2022-07-23T01:53:28;6.03;;;4.30;;
18499;SDS011;9379;52.134;11.576;2022-07-23T01:55:58;6.70;;;4.45;;
18499;SDS011;9379;52.134;11.576;2022-07-23T01:58:26;6.50;;;4.15;;
18499;SDS011;9379;52.134;11.576;2022-07-23T02:00:54;3.30;;;2.92;;
18499;SDS011;9379;52.134;11.576;2022-07-23T02:03:22;5.30;;;4.80;;
18499;SDS011;9379;52.134;11.576;2022-07-23T02:05:57;4.63;;;3.88;;
18499;SDS011;9379;52.134;11.576;2022-07-23T02:08:26;5.90;;;4.43;;
18499;SDS011;9379;52.134;11.576;2022-07-23T02:10:56;9.82;;;6.15;;
18499;SDS011;9379;52.134;11.576;2022-07-23T02:13:26;6.32;;;5.70;;
18499;SDS011;9379;52.134;11.576;2022-07-23T02:15:54;4.88;;;4.43;;
18499;SDS011;9379;52.134;11.576;2022-07-23T02:18:25;5.57;;;5.05;;
18499;SDS011;9379;52.134;11.576;2022-07-23T02:20:52;4.50;;;4.10;;
18499;SDS011;9379;52.134;11.576;2022-07-23T02:23:19;5.60;;;4.50;;
18499;SDS011;9379;52.134;11.576;2022-07-23T02:25:47;7.60;;;4.47;;
18499;SDS011;9379;52.134;11.576;2022-07-23T02:28:16;7.95;;;5.45;;
18499;SDS011;9379;52.134;11.576;2022-07-23T02:30:44;5.30;;;4.85;;
18499;SDS011;9379;52.134;11.576;2022-07-23T02:33:11;6.00;;;5.00;;
18499;SDS011;9379;52.134;11.576;2022-07-23T02:35:39;7.20;;;5.72;;
18499;SDS011;9379;52.134;11.576;2022-07-23T02:38:06;5.63;;;5.15;;
18499;SDS011;9379;52.134;11.576;2022-07-23T02:40:34;7.53;;;6.13;;
18499;SDS011;9379;52.134;11.576;2022-07-23T02:43:01;6.32;;;5.18;;
18499;SDS011;9379;52.134;11.576;2022-07-23T02:45:29;5.43;;;4.95;;
18499;SDS011;9379;52.134;11.576;2022-07-23T02:47:58;6.05;;;5.55;;
18499;SDS011;9379;52.134;11.576;2022-07-23T02:50:25;5.65;;;4.90;;
18499;SDS011;9379;52.134;11.576;2022-07-23T02:52:53;6.35;;;5.82;;
18499;SDS011;9379;52.134;11.576;2022-07-23T02:55:20;5.00;;;4.53;;
18499;SDS011;9379;52.134;11.576;2022-07-23T02:57:47;6.07;;;5.35;;
18499;SDS011;9379;52.134;11.576;2022-07-23T03:00:14;5.95;;;5.45;;
18499;SDS011;9379;52.134;11.576;2022-07-23T03:02:43;5.57;;;5.07;;
18499;SDS011;9379;52.134;11.576;2022-07-23T03:05:14;6.10;;;4.82;;
18499;SDS011;9379;52.134;11.576;2022-07-23T03:07:41;6.22;;;4.97;;
18499;SDS011;9379;52.134;11.576;2022-07-23T03:10:08;6.45;;;5.85;;
18499;SDS011;9379;52.134;11.576;2022-07-23T03:12:35;5.88;;;5.28;;
18499;SDS011;9379;52.134;11.576;2022-07-23T03:15:04;6.18;;;5.65;;
18499;SDS011;9379;52.134;11.576;2022-07-23T03:17:32;7.28;;;4.88;;
18499;SDS011;9379;52.134;11.576;2022-07-23T03:20:01;5.00;;;4.32;;
18499;SDS011;9379;52.134;11.576;2022-07-23T03:22:28;7.22;;;6.47;;
18499;SDS011;9379;52.134;11.576;2022-07-23T03:24:55;5.53;;;5.03;;
18499;SDS011;9379;52.134;11.576;2022-07-23T03:27:23;6.38;;;5.78;;
18499;SDS011;9379;52.134;11.576;2022-07-23T03:29:53;9.82;;;7.78;;
18499;SDS011;9379;52.134;11.576;2022-07-23T03:32:22;7.05;;;6.43;;
18499;SDS011;9379;52.134;11.576;2022-07-23T03:34:53;6.05;;;5.55;;
18499;SDS011;9379;52.134;11.576;2022-07-23T03:37:23;7.75;;;6.32;;
18499;SDS011;9379;52.134;11.576;2022-07-23T03:39:50;6.10;;;5.53;;
18499;SDS011;9379;52.134;11.576;2022-07-23T03:42:18;7.22;;;6.57;;
18499;SDS011;9379;52.134;11.576;2022-07-23T03:44:49;5.65;;;5.15;;
18499;SDS011;9379;52.134;11.576;2022-07-23T03:47:16;7.47;;;6.70;;
18499;SDS011;9379;52.134;11.576;2022-07-23T03:49:46;6.53;;;5.90;;
18499;SDS011;9379;52.134;11.576;2022-07-23T03:52:17;5.70;;;5.20;;
18499;SDS011;9379;52.134;11.576;2022-07-23T03:54:46;7.75;;;5.85;;
18499;SDS011;9379;52.134;11.576;2022-07-23T03:57:13;5.85;;;5.35;;
18499;SDS011;9379;52.134;11.576;2022-07-23T03:59:43;6.03;;;5.55;;
18499;SDS011;9379;52.134;11.576;2022-07-23T04:02:10;6.05;;;5.55;;
18499;SDS011;9379;52.134;11.576;2022-07-23T04:04:38;8.35;;;6.38;;
18499;SDS011;9379;52.134;11.576;2022-07-23T04:07:05;5.20;;;4.72;;
18499;SDS011;9379;52.134;11.576;2022-07-23T04:09:35;4.10;;;3.80;;
18499;SDS011;9379;52.134;11.576;2022-07-23T04:12:14;4.55;;;4.05;;
18499;SDS011;9379;52.134;11.576;2022-07-23T04:14:41;4.10;;;3.70;;
18499;SDS011;9379;52.134;11.576;2022-07-23T04:17:08;4.30;;;3.95;;
18499;SDS011;9379;52.134;11.576;2022-07-23T04:19:34;5.38;;;4.95;;
18499;SDS011;9379;52.134;11.576;2022-07-23T04:22:04;4.38;;;3.97;;
18499;SDS011;9379;52.134;11.576;2022-07-23T04:24:31;4.55;;;3.78;;
18499;SDS011;9379;52.134;11.576;2022-07-23T04:26:58;4.85;;;4.07;;
18499;SDS011;9379;52.134;11.576;2022-07-23T04:29:26;5.13;;;4.68;;
18499;SDS011;9379;52.134;11.576;2022-07-23T04:31:53;5.15;;;4.38;;
18499;SDS011;9379;52.134;11.576;2022-07-23T04:34:19;7.50;;;4.53;;
18499;SDS011;9379;52.134;11.576;2022-07-23T04:36:47;10.95;;;5.80;;
18499;SDS011;9379;52.134;11.576;2022-07-23T04:39:13;6.00;;;5.50;;
18499;SDS011;9379;52.134;11.576;2022-07-23T04:41:40;7.35;;;6.65;;
18499;SDS011;9379;52.134;11.576;2022-07-23T04:44:07;5.20;;;4.68;;
18499;SDS011;9379;52.134;11.576;2022-07-23T04:46:35;7.30;;;6.05;;
18499;SDS011;9379;52.134;11.576;2022-07-23T04:49:02;4.85;;;4.45;;
18499;SDS011;9379;52.134;11.576;2022-07-23T04:51:28;6.38;;;5.78;;
18499;SDS011;9379;52.134;11.576;2022-07-23T04:53:55;7.05;;;5.25;;
18499;SDS011;9379;52.134;11.576;2022-07-23T04:56:22;8.00;;;7.22;;
18499;SDS011;9379;52.134;11.576;2022-07-23T04:58:49;6.63;;;5.57;;
18499;SDS011;9379;52.134;11.576;2022-07-23T05:01:15;5.35;;;4.85;;
18499;SDS011;9379;52.134;11.576;2022-07-23T05:03:43;5.85;;;5.45;;
18499;SDS011;9379;52.134;11.576;2022-07-23T05:06:10;7.10;;;5.60;;
18499;SDS011;9379;52.134;11.576;2022-07-23T05:08:37;5.95;;;5.45;;
18499;SDS011;9379;52.134;11.576;2022-07-23T05:11:04;7.25;;;6.55;;
18499;SDS011;9379;52.134;11.576;2022-07-23T05:13:30;6.05;;;5.53;;
18499;SDS011;9379;52.134;11.576;2022-07-23T05:15:57;6.78;;;6.07;;
18499;SDS011;9379;52.134;11.576;2022-07-23T05:18:24;13.90;;;6.43;;
18499;SDS011;9379;52.134;11.576;2022-07-23T05:20:52;5.65;;;5.03;;
18499;SDS011;9379;52.134;11.576;2022-07-23T05:23:19;6.07;;;5.55;;
18499;SDS011;9379;52.134;11.576;2022-07-23T05:25:46;5.80;;;5.28;;
18499;SDS011;9379;52.134;11.576;2022-07-23T05:28:12;6.57;;;5.88;;
18499;SDS011;9379;52.134;11.576;2022-07-23T05:30:39;11.68;;;5.28;;
18499;SDS011;9379;52.134;11.576;2022-07-23T05:33:06;6.25;;;5.60;;
18499;SDS011;9379;52.134;11.576;2022-07-23T05:35:33;5.80;;;5.30;;
18499;SDS011;9379;52.134;11.576;2022-07-23T05:38:01;11.88;;;6.40;;
18499;SDS011;9379;52.134;11.576;2022-07-23T05:40:28;4.95;;;4.05;;
18499;SDS011;9379;52.134;11.576;2022-07-23T05:42:55;11.23;;;5.30;;
18499;SDS011;9379;52.134;11.576;2022-07-23T05:45:22;6.05;;;5.32;;
18499;SDS011;9379;52.134;11.576;2022-07-23T05:47:49;5.20;;;4.70;;
18499;SDS011;9379;52.134;11.576;2022-07-23T05:50:16;5.25;;;4.72;;
18499;SDS011;9379;52.134;11.576;2022-07-23T05:52:43;6.03;;;5.47;;
18499;SDS011;9379;52.134;11.576;2022-07-23T05:55:11;5.30;;;4.53;;
18499;SDS011;9379;52.134;11.576;2022-07-23T05:57:38;5.45;;;4.88;;
18499;SDS011;9379;52.134;11.576;2022-07-23T06:00:06;7.93;;;4.70;;
18499;SDS011;9379;52.134;11.576;2022-07-23T06:02:34;6.80;;;5.38;;
18499;SDS011;9379;52.134;11.576;2022-07-23T06:05:01;6.53;;;5.88;;
18499;SDS011;9379;52.134;11.576;2022-07-23T06:07:28;7.18;;;5.97;;
18499;SDS011;9379;52.134;11.576;2022-07-23T06:09:55;6.05;;;4.88;;
18499;SDS011;9379;52.134;11.576;2022-07-23T06:12:23;5.40;;;4.90;;
18499;SDS011;9379;52.134;11.576;2022-07-23T06:14:50;11.25;;;4.40;;
18499;SDS011;9379;52.134;11.576;2022-07-23T06:17:17;3.83;;;3.53;;
18499;SDS011;9379;52.134;11.576;2022-07-23T06:19:44;6.60;;;6.00;;
18499;SDS011;9379;52.134;11.576;2022-07-23T06:22:11;4.53;;;4.13;;
18499;SDS011;9379;52.134;11.576;2022-07-23T06:24:37;5.20;;;4.80;;
18499;SDS011;9379;52.134;11.576;2022-07-23T06:27:05;5.72;;;5.07;;
18499;SDS011;9379;52.134;11.576;2022-07-23T06:29:33;4.85;;;4.45;;
18499;SDS011;9379;52.134;11.576;2022-07-23T06:31:59;8.25;;;5.63;;
18499;SDS011;9379;52.134;11.576;2022-07-23T06:34:26;7.32;;;5.50;;
18499;SDS011;9379;52.134;11.576;2022-07-23T06:36:53;4.78;;;4.38;;
18499;SDS011;9379;52.134;11.576;2022-07-23T06:39:20;4.70;;;4.20;;
18499;SDS011;9379;52.134;11.576;2022-07-23T06:41:47;5.07;;;4.47;;
18499;SDS011;9379;52.134;11.576;2022-07-23T06:44:14;6.00;;;5.50;;
18499;SDS011;9379;52.134;11.576;2022-07-23T06:46:42;10.38;;;5.65;;
18499;SDS011;9379;52.134;11.576;2022-07-23T06:49:09;6.60;;;5.95;;
18499;SDS011;9379;52.134;11.576;2022-07-23T06:51:36;5.45;;;4.28;;
18499;SDS011;9379;52.134;11.576;2022-07-23T06:54:02;4.40;;;4.00;;
18499;SDS011;9379;52.134;11.576;2022-07-23T06:56:30;5.38;;;4.97;;
18499;SDS011;9379;52.134;11.576;2022-07-23T06:58:57;9.50;;;5.63;;
18499;SDS011;9379;52.134;11.576;2022-07-23T07:01:23;5.78;;;4.93;;
18499;SDS011;9379;52.134;11.576;2022-07-23T07:03:52;6.60;;;5.07;;
18499;SDS011;9379;52.134;11.576;2022-07-23T07:06:18;8.75;;;5.03;;
18499;SDS011;9379;52.134;11.576;2022-07-23T07:08:45;7.05;;;5.13;;
18499;SDS011;9379;52.134;11.576;2022-07-23T07:11:12;4.60;;;3.90;;
18499;SDS011;9379;52.134;11.576;2022-07-23T07:13:39;3.53;;;3.03;;
18499;SDS011;9379;52.134;11.576;2022-07-23T07:16:06;3.28;;;2.88;;
18499;SDS011;9379;52.134;11.576;2022-07-23T07:18:33;3.80;;;3.50;;
18499;SDS011;9379;52.134;11.576;2022-07-23T07:21:01;4.00;;;3.60;;
18499;SDS011;9379;52.134;11.576;2022-07-23T07:23:28;3.83;;;3.60;;
18499;SDS011;9379;52.134;11.576;2022-07-23T07:25:55;6.15;;;3.13;;
18499;SDS011;9379;52.134;11.576;2022-07-23T07:28:22;4.32;;;4.00;;
18499;SDS011;9379;52.134;11.576;2022-07-23T07:30:49;4.18;;;3.70;;
18499;SDS011;9379;52.134;11.576;2022-07-23T07:33:16;3.30;;;3.10;;
18499;SDS011;9379;52.134;11.576;2022-07-23T07:35:42;3.47;;;3.17;;
18499;SDS011;9379;52.134;11.576;2022-07-23T07:38:11;8.02;;;5.03;;
18499;SDS011;9379;52.134;11.576;2022-07-23T07:40:37;4.07;;;3.20;;
18499;SDS011;9379;52.134;11.576;2022-07-23T07:43:04;4.13;;;3.72;;
18499;SDS011;9379;52.134;11.576;2022-07-23T07:45:31;8.88;;;4.80;;
18499;SDS011;9379;52.134;11.576;2022-07-23T07:47:58;4.47;;;3.67;;
18499;SDS011;9379;52.134;11.576;2022-07-23T07:50:25;4.30;;;3.90;;
18499;SDS011;9379;52.134;11.576;2022-07-23T07:52:52;7.72;;;4.78;;
18499;SDS011;9379;52.134;11.576;2022-07-23T07:55:20;6.28;;;5.03;;
18499;SDS011;9379;52.134;11.576;2022-07-23T07:57:47;4.43;;;4.10;;
18499;SDS011;9379;52.134;11.576;2022-07-23T08:00:14;4.18;;;3.55;;
18499;SDS011;9379;52.134;11.576;2022-07-23T08:02:42;3.33;;;2.97;;
18499;SDS011;9379;52.134;11.576;2022-07-23T08:05:09;6.57;;;4.70;;
18499;SDS011;9379;52.134;11.576;2022-07-23T08:07:36;4.60;;;4.30;;
18499;SDS011;9379;52.134;11.576;2022-07-23T08:10:05;4.53;;;4.18;;
18499;SDS011;9379;52.134;11.576;2022-07-23T08:12:41;7.80;;;5.43;;
18499;SDS011;9379;52.134;11.576;2022-07-23T08:15:10;9.52;;;4.68;;
18499;SDS011;9379;52.134;11.576;2022-07-23T08:17:40;3.83;;;3.53;;
18499;SDS011;9379;52.134;11.576;2022-07-23T08:20:08;4.97;;;4.57;;
18499;SDS011;9379;52.134;11.576;2022-07-23T08:22:45;2.88;;;2.67;;
18499;SDS011;9379;52.134;11.576;2022-07-23T08:25:14;4.50;;;4.20;;
18499;SDS011;9379;52.134;11.576;2022-07-23T08:27:43;7.25;;;5.25;;
18499;SDS011;9379;52.134;11.576;2022-07-23T08:30:10;8.88;;;3.85;;
18499;SDS011;9379;52.134;11.576;2022-07-23T08:32:50;5.95;;;4.53;;
18499;SDS011;9379;52.134;11.576;2022-07-23T08:35:17;4.10;;;3.80;;
18499;SDS011;9379;52.134;11.576;2022-07-23T08:37:48;4.13;;;3.72;;
18499;SDS011;9379;52.134;11.576;2022-07-23T08:40:15;6.82;;;4.97;;
18499;SDS011;9379;52.134;11.576;2022-07-23T08:42:43;5.50;;;4.25;;
18499;SDS011;9379;52.134;11.576;2022-07-23T08:45:13;5.18;;;4.32;;
18499;SDS011;9379;52.134;11.576;2022-07-23T08:47:42;5.63;;;5.05;;
18499;SDS011;9379;52.134;11.576;2022-07-23T08:50:10;5.40;;;3.90;;
18499;SDS011;9379;52.134;11.576;2022-07-23T08:52:37;4.55;;;4.15;;
18499;SDS011;9379;52.134;11.576;2022-07-23T08:55:05;3.50;;;3.22;;
18499;SDS011;9379;52.134;11.576;2022-07-23T08:57:33;5.13;;;3.63;;
18499;SDS011;9379;52.134;11.576;2022-07-23T09:00:01;3.45;;;3.15;;
18499;SDS011;9379;52.134;11.576;2022-07-23T09:02:30;19.60;;;4.50;;
18499;SDS011;9379;52.134;11.576;2022-07-23T09:04:56;6.97;;;4.10;;
18499;SDS011;9379;52.134;11.576;2022-07-23T09:07:23;4.13;;;3.65;;
18499;SDS011;9379;52.134;11.576;2022-07-23T09:09:57;3.17;;;2.88;;
18499;SDS011;9379;52.134;11.576;2022-07-23T09:12:31;3.75;;;2.55;;
18499;SDS011;9379;52.134;11.576;2022-07-23T09:15:01;4.22;;;3.72;;
18499;SDS011;9379;52.134;11.576;2022-07-23T09:17:30;8.93;;;3.70;;
18499;SDS011;9379;52.134;11.576;2022-07-23T09:20:07;2.00;;;1.77;;
18499;SDS011;9379;52.134;11.576;2022-07-23T09:22:36;5.53;;;2.80;;
18499;SDS011;9379;52.134;11.576;2022-07-23T09:25:03;4.45;;;2.40;;
18499;SDS011;9379;52.134;11.576;2022-07-23T09:27:46;2.55;;;1.98;;
18499;SDS011;9379;52.134;11.576;2022-07-23T09:30:17;2.67;;;1.95;;
18499;SDS011;9379;52.134;11.576;2022-07-23T09:32:44;2.35;;;2.13;;
18499;SDS011;9379;52.134;11.576;2022-07-23T09:35:10;3.35;;;3.10;;
18499;SDS011;9379;52.134;11.576;2022-07-23T09:37:37;2.50;;;2.30;;
18499;SDS011;9379;52.134;11.576;2022-07-23T09:40:05;4.25;;;3.85;;
18499;SDS011;9379;52.134;11.576;2022-07-23T09:42:34;8.05;;;4.78;;
18499;SDS011;9379;52.134;11.576;2022-07-23T09:45:00;4.53;;;3.78;;
18499;SDS011;9379;52.134;11.576;2022-07-23T09:47:29;2.67;;;2.47;;
18499;SDS011;9379;52.134;11.576;2022-07-23T09:49:58;1.90;;;1.80;;
18499;SDS011;9379;52.134;11.576;2022-07-23T09:52:28;2.03;;;1.92;;
18499;SDS011;9379;52.134;11.576;2022-07-23T09:54:59;4.15;;;3.85;;
18499;SDS011;9379;52.134;11.576;2022-07-23T09:57:27;3.17;;;2.88;;
18499;SDS011;9379;52.134;11.576;2022-07-23T09:59:56;3.80;;;3.15;;
18499;SDS011;9379;52.134;11.576;2022-07-23T10:02:24;3.60;;;2.00;;
18499;SDS011;9379;52.134;11.576;2022-07-23T10:04:55;2.53;;;2.15;;
18499;SDS011;9379;52.134;11.576;2022-07-23T10:07:22;2.63;;;2.42;;
18499;SDS011;9379;52.134;11.576;2022-07-23T10:09:52;3.67;;;3.22;;
18499;SDS011;9379;52.134;11.576;2022-07-23T10:12:19;2.63;;;2.42;;
18499;SDS011;9379;52.134;11.576;2022-07-23T10:15:00;3.10;;;2.90;;
18499;SDS011;9379;52.134;11.576;2022-07-23T10:17:28;5.20;;;3.30;;
18499;SDS011;9379;52.134;11.576;2022-07-23T10:19:56;4.05;;;3.20;;
18499;SDS011;9379;52.134;11.576;2022-07-23T10:22:24;2.38;;;2.17;;
18499;SDS011;9379;52.134;11.576;2022-07-23T10:24:58;3.10;;;2.90;;
18499;SDS011;9379;52.134;11.576;2022-07-23T10:27:34;10.30;;;3.25;;
18499;SDS011;9379;52.134;11.576;2022-07-23T10:30:09;2.30;;;2.20;;
18499;SDS011;9379;52.134;11.576;2022-07-23T10:32:44;3.28;;;2.92;;
18499;SDS011;9379;52.134;11.576;2022-07-23T10:35:21;3.22;;;2.95;;
18499;SDS011;9379;52.134;11.576;2022-07-23T10:37:56;3.53;;;2.75;;
18499;SDS011;9379;52.134;11.576;2022-07-23T10:40:28;2.50;;;2.30;;
18499;SDS011;9379;52.134;11.576;2022-07-23T10:42:58;4.88;;;3.20;;
18499;SDS011;9379;52.134;11.576;2022-07-23T10:45:29;2.33;;;2.03;;
18499;SDS011;9379;52.134;11.576;2022-07-23T10:48:11;6.40;;;3.95;;
18499;SDS011;9379;52.134;11.576;2022-07-23T10:50:41;3.90;;;3.53;;
18499;SDS011;9379;52.134;11.576;2022-07-23T10:55:48;2.00;;;1.90;;
18499;SDS011;9379;52.134;11.576;2022-07-23T10:58:17;4.40;;;3.75;;
18499;SDS011;9379;52.134;11.576;2022-07-23T11:03:57;2.67;;;2.25;;
18499;SDS011;9379;52.134;11.576;2022-07-23T11:06:28;6.28;;;3.80;;
18499;SDS011;9379;52.134;11.576;2022-07-23T11:09:39;2.33;;;2.13;;
18499;SDS011;9379;52.134;11.576;2022-07-23T11:15:00;4.47;;;3.28;;
18499;SDS011;9379;52.134;11.576;2022-07-23T11:17:28;4.50;;;3.50;;
18499;SDS011;9379;52.134;11.576;2022-07-23T11:22:50;2.17;;;2.08;;
18499;SDS011;9379;52.134;11.576;2022-07-23T11:25:29;4.65;;;2.20;;
18499;SDS011;9379;52.134;11.576;2022-07-23T11:28:07;2.60;;;2.15;;
18499;SDS011;9379;52.134;11.576;2022-07-23T11:30:37;1.70;;;1.60;;
18499;SDS011;9379;52.134;11.576;2022-07-23T11:33:18;2.45;;;1.92;;
18499;SDS011;9379;52.134;11.576;2022-07-23T11:35:47;2.40;;;2.20;;
18499;SDS011;9379;52.134;11.576;2022-07-23T11:38:18;1.90;;;1.80;;
18499;SDS011;9379;52.134;11.576;2022-07-23T11:40:48;2.45;;;2.13;;
18499;SDS011;9379;52.134;11.576;2022-07-23T11:43:18;3.97;;;3.30;;
18499;SDS011;9379;52.134;11.576;2022-07-23T11:45:46;3.58;;;3.22;;
18499;SDS011;9379;52.134;11.576;2022-07-23T11:48:19;2.33;;;2.20;;
18499;SDS011;9379;52.134;11.576;2022-07-23T11:50:47;2.58;;;2.40;;
18499;SDS011;9379;52.134;11.576;2022-07-23T11:53:22;2.53;;;2.40;;
18499;SDS011;9379;52.134;11.576;2022-07-23T11:55:50;1.80;;;1.70;;
18499;SDS011;9379;52.134;11.576;2022-07-23T11:58:17;1.98;;;1.73;;
18499;SDS011;9379;52.134;11.576;2022-07-23T12:00:44;2.38;;;1.80;;
18499;SDS011;9379;52.134;11.576;2022-07-23T12:03:11;2.50;;;2.30;;
18499;SDS011;9379;52.134;11.576;2022-07-23T12:05:38;1.77;;;1.67;;
18499;SDS011;9379;52.134;11.576;2022-07-23T12:08:06;1.23;;;1.23;;
18499;SDS011;9379;52.134;11.576;2022-07-23T12:10:36;3.78;;;1.50;;
18499;SDS011;9379;52.134;11.576;2022-07-23T12:13:05;1.98;;;1.88;;
18499;SDS011;9379;52.134;11.576;2022-07-23T12:15:34;2.42;;;2.28;;
18499;SDS011;9379;52.134;11.576;2022-07-23T12:18:05;1.83;;;1.73;;
18499;SDS011;9379;52.134;11.576;2022-07-23T12:20:33;1.90;;;1.80;;
18499;SDS011;9379;52.134;11.576;2022-07-23T12:23:02;2.03;;;1.90;;
18499;SDS011;9379;52.134;11.576;2022-07-23T12:25:31;1.60;;;1.50;;
18499;SDS011;9379;52.134;11.576;2022-07-23T12:28:02;1.67;;;1.58;;
18499;SDS011;9379;52.134;11.576;2022-07-23T12:30:32;1.50;;;1.40;;
18499;SDS011;9379;52.134;11.576;2022-07-23T12:33:00;1.70;;;1.60;;
18499;SDS011;9379;52.134;11.576;2022-07-23T12:35:31;1.30;;;1.23;;
18499;SDS011;9379;52.134;11.576;2022-07-23T12:38:02;1.38;;;1.27;;
18499;SDS011;9379;52.134;11.576;2022-07-23T12:40:31;2.85;;;1.83;;
18499;SDS011;9379;52.134;11.576;2022-07-23T12:43:01;1.60;;;1.50;;
18499;SDS011;9379;52.134;11.576;2022-07-23T12:45:41;1.20;;;1.10;;
18499;SDS011;9379;52.134;11.576;2022-07-23T12:48:15;1.45;;;1.00;;
18499;SDS011;9379;52.134;11.576;2022-07-23T12:50:53;3.15;;;2.08;;
18499;SDS011;9379;52.134;11.576;2022-07-23T12:53:22;1.50;;;1.40;;
18499;SDS011;9379;52.134;11.576;2022-07-23T12:55:53;2.95;;;2.08;;
18499;SDS011;9379;52.134;11.576;2022-07-23T12:58:27;0.85;;;0.85;;
18499;SDS011;9379;52.134;11.576;2022-07-23T13:01:06;1.45;;;1.38;;
18499;SDS011;9379;52.134;11.576;2022-07-23T13:03:36;1.73;;;1.55;;
18499;SDS011;9379;52.134;11.576;2022-07-23T13:06:05;1.20;;;1.10;;
18499;SDS011;9379;52.134;11.576;2022-07-23T13:08:34;1.38;;;1.17;;
18499;SDS011;9379;52.134;11.576;2022-07-23T13:11:02;2.25;;;1.40;;
18499;SDS011;9379;52.134;11.576;2022-07-23T13:13:33;3.60;;;1.45;;
18499;SDS011;9379;52.134;11.576;2022-07-23T13:16:01;2.03;;;1.52;;
18499;SDS011;9379;52.134;11.576;2022-07-23T13:18:28;5.20;;;1.75;;
18499;SDS011;9379;52.134;11.576;2022-07-23T13:20:56;1.20;;;1.10;;
18499;SDS011;9379;52.134;11.576;2022-07-23T13:23:23;2.75;;;1.80;;
18499;SDS011;9379;52.134;11.576;2022-07-23T13:25:50;2.20;;;2.05;;
18499;SDS011;9379;52.134;11.576;2022-07-23T13:28:18;1.73;;;1.48;;
18499;SDS011;9379;52.134;11.576;2022-07-23T13:30:47;1.52;;;1.42;;
18499;SDS011;9379;52.134;11.576;2022-07-23T13:33:16;1.88;;;1.77;;
18499;SDS011;9379;52.134;11.576;2022-07-23T13:35:43;1.95;;;1.77;;
18499;SDS011;9379;52.134;11.576;2022-07-23T13:38:10;2.00;;;1.50;;
18499;SDS011;9379;52.134;11.576;2022-07-23T13:40:38;1.50;;;1.40;;
18499;SDS011;9379;52.134;11.576;2022-07-23T13:43:07;1.00;;;1.00;;
18499;SDS011;9379;52.134;11.576;2022-07-23T13:45:36;1.00;;;1.00;;
18499;SDS011;9379;52.134;11.576;2022-07-23T13:48:05;2.17;;;1.58;;
18499;SDS011;9379;52.134;11.576;2022-07-23T13:50:32;2.47;;;1.65;;
18499;SDS011;9379;52.134;11.576;2022-07-23T13:53:00;2.15;;;1.42;;
18499;SDS011;9379;52.134;11.576;2022-07-23T13:55:28;1.05;;;1.00;;
18499;SDS011;9379;52.134;11.576;2022-07-23T13:57:55;2.17;;;1.33;;
18499;SDS011;9379;52.134;11.576;2022-07-23T14:00:21;1.23;;;1.20;;
18499;SDS011;9379;52.134;11.576;2022-07-23T14:02:48;12.50;;;2.17;;
18499;SDS011;9379;52.134;11.576;2022-07-23T14:05:16;1.25;;;1.10;;
18499;SDS011;9379;52.134;11.576;2022-07-23T14:07:43;1.85;;;1.40;;
18499;SDS011;9379;52.134;11.576;2022-07-23T14:10:12;1.10;;;1.10;;
18499;SDS011;9379;52.134;11.576;2022-07-23T14:12:39;1.20;;;1.20;;
18499;SDS011;9379;52.134;11.576;2022-07-23T14:15:06;1.50;;;1.40;;
18499;SDS011;9379;52.134;11.576;2022-07-23T14:17:35;0.98;;;0.80;;
18499;SDS011;9379;52.134;11.576;2022-07-23T14:20:02;1.10;;;1.08;;
18499;SDS011;9379;52.134;11.576;2022-07-23T14:22:31;1.30;;;1.20;;
18499;SDS011;9379;52.134;11.576;2022-07-23T14:24:58;1.13;;;1.02;;
18499;SDS011;9379;52.134;11.576;2022-07-23T14:27:26;1.20;;;1.10;;
18499;SDS011;9379;52.134;11.576;2022-07-23T14:29:54;1.95;;;1.65;;
18499;SDS011;9379;52.134;11.576;2022-07-23T14:32:21;1.33;;;1.23;;
18499;SDS011;9379;52.134;11.576;2022-07-23T14:34:48;0.90;;;0.80;;
18499;SDS011;9379;52.134;11.576;2022-07-23T14:37:15;1.25;;;0.95;;
18499;SDS011;9379;52.134;11.576;2022-07-23T14:39:43;1.10;;;1.00;;
18499;SDS011;9379;52.134;11.576;2022-07-23T14:42:11;1.58;;;1.48;;
18499;SDS011;9379;52.134;11.576;2022-07-23T14:44:38;0.90;;;0.90;;
18499;SDS011;9379;52.134;11.576;2022-07-23T14:47:05;0.77;;;0.77;;
18499;SDS011;9379;52.134;11.576;2022-07-23T14:49:32;1.25;;;0.93;;
18499;SDS011;9379;52.134;11.576;2022-07-23T14:51:59;1.92;;;0.80;;
18499;SDS011;9379;52.134;11.576;2022-07-23T14:54:26;2.85;;;0.93;;
18499;SDS011;9379;52.134;11.576;2022-07-23T14:56:56;0.98;;;0.88;;
18499;SDS011;9379;52.134;11.576;2022-07-23T14:59:24;0.95;;;0.90;;
18499;SDS011;9379;52.134;11.576;2022-07-23T15:01:51;0.75;;;0.73;;
18499;SDS011;9379;52.134;11.576;2022-07-23T15:04:19;2.95;;;1.55;;
18499;SDS011;9379;52.134;11.576;2022-07-23T15:06:46;1.15;;;0.68;;
18499;SDS011;9379;52.134;11.576;2022-07-23T15:09:13;0.77;;;0.77;;